White Mountain Summit Weather observations

Data are for 10 minute period ending at time listed.
 Day   Time   Solar   Ave.   Ave.  Ave.  Vector    Max.    Baro.  
  of    of     Rad.   Air    Rel.  Wind   Wind     Wind   Press.  
Year   Day            Temp.  Hum.  Speed  Dir.     Gust           
2016   (PST)   W/m2    F      %     mph   deg.      mph     mb.   
-------------------------------------------------------------------
 240   19:50  27410.0    43   34.8    13    265.6    16.5   607.6 
 240   20:00  28130.0    43   36.4    10    265.6    14.1   607.7 
 240   20:10  26940.0    43   36.5     8    264.8    11.8   607.7 
 240   20:20  26300.0    42   39.7    11    266.9    14.1   607.8 
 240   20:30  25560.0    42   40.7    10    270.1    14.1   607.7 
 240   20:40  23690.0    41   41.3     9    273.2    11.8   607.8 
 240   20:50  23230.0    41   41.4     7    281.6    11.8   607.8 
 240   21:00  23980.0    41   41.3     6    276.4    11.8   607.8 
 240   21:10  16630.0    42   40.2     6    338.0    14.1   607.8 
 240   21:20  13120.0    42   38.9     7    343.8    14.1   607.8 
 240   21:30  12720.0    42   37.6     7      0.1    14.1   607.8 
 240   21:40  11720.0    41   38.0    10      1.7    16.5   607.8 
 240   21:50  8940.0    42   39.0     7      6.6    14.1   607.8 
 240   22:00  6531.0    41   37.5     6      8.1    14.1   607.8 
 240   22:10  6028.0    40   38.3     6     31.9    11.8   607.8 
 240   22:20  7899.0    39   39.4     7     33.6    11.8   607.8 
 240   22:30  7734.0    38   40.5    10     39.3    14.1   607.7 
 240   22:40  7491.0    38   41.7    13     55.5    18.8   607.6 
 240   22:50  6637.0    38   42.1    13     54.5    16.5   607.6 
 240   23:00  6511.0    37   42.2    12     59.6    16.5   607.7 
 240   23:10  6176.0    37   42.3    14     50.5    18.8   607.7 
 240   23:20  6628.0    37   42.6    14     54.7    18.8   607.6 
 240   23:30  6146.0    36   43.1    17     56.5    21.2   607.6 
 240   23:40  6403.0    36   43.6    18     58.9    21.2   607.6 
 240   23:50  6329.0    36   44.8    18     60.5    21.2   607.6 
 241    0:00  5783.0    36   45.4    17     62.0    21.2   607.6 
 241    0:10  5781.0    36   45.9    17     61.7    18.8   607.6 
 241    0:20  6147.0    36   45.7    17     61.0    18.8   607.7 
 241    0:30  6160.0    36   45.6    16     56.1    18.8   607.7 
 241    0:40  5984.0    35   47.0    12     58.0    14.1   607.7 
 241    0:50  6027.0    35   46.1    12     58.8    14.1   607.7 
 241    1:00  6365.0    35   45.5    10     64.8    14.1   607.7 
 241    1:10  6868.0    36   44.5     9     65.7    11.8   607.8 
 241    1:20  6649.0    36   44.3     9     69.7    11.8   607.8 
 241    1:30  6641.0    36   44.6    10     64.0    11.8   607.8 
 241    1:40  6630.0    35   45.5    12     61.2    14.1   607.9 
 241    1:50  6286.0    35   45.5     8     68.9    11.8   607.9 
 241    2:00  6141.0    35   45.7     7     68.8     9.4   607.9 
 241    2:10  6139.0    35   45.6     7     71.8     9.4   607.9 
 241    2:20  6119.0    35   45.2     5     71.2     9.4   607.9 
 241    2:30  5774.0    36   44.7     4     80.5     7.1   607.9 
 241    2:40  5716.0    35   45.2     6     72.2     9.4   607.9 
 241    2:50  5793.0    35   45.4     6     73.1     9.4   607.9 
 241    3:00  5871.0    35   45.4     6     74.1     9.4   607.9 
 241    3:10  5984.0    35   46.3     6     77.7     7.1   607.9 
 241    3:20  5790.0    35   46.8     6     76.1    11.8   607.9 
 241    3:30  5698.0    35   46.7     6     73.4     7.1   607.9 
 241    3:40  5563.0    34   47.1     7     73.7     9.4   607.9 
 241    3:50  5441.0    34   47.5     6     72.9     9.4   607.9 
 241    4:00  5547.0    34   47.8     6     74.1     9.4   608.0 
 241    4:10  5430.0    34   48.8     7     72.0     9.4   608.1 
 241    4:20  5360.0    34   48.6     7     66.4     9.4   608.1 
 241    4:30  5422.0    34   47.8     5     71.0     9.4   608.1 
 241    4:40  5247.0    34   46.9     6     71.5     9.4   608.1 
 241    4:50  5206.0    34   47.1     5     71.2     9.4   608.1 
 241    5:00  5353.0    34   47.1     2     81.1     4.7   608.1 
 241    5:10  5330.0    34   46.8     2     84.0     4.7   608.2 
 241    5:20  5506.0    35   45.5     2     85.8     4.7   608.3 
 241    5:30  6287.0    35   45.2     3    110.8     4.7   608.4 
 241    5:40  2664.0    35   44.8     4    148.4     7.1   608.5 
 241    5:50  7376.0    35   44.8     3    180.8     7.1   608.6 
 241    6:00  1342.0    35   45.5     5    190.6     7.1   608.6 
 241    6:10  696.0    35   45.5     4    179.6     7.1   608.6 
 241    6:20  769.0    35   44.7     4    172.5     7.1   608.7 
 241    6:30  405.0    35   43.0     7    199.9     9.4   608.7 
 241    6:40  244.0    35   42.8     7    199.5     9.4   608.8 
 241    6:50    0.0    36   41.8     4    184.7     7.1   608.9 
 241    7:00    0.0    36   40.5     4    172.6     7.1   608.9 
 241    7:10    0.0    37   40.0     7    162.5     9.4   609.0 
 241    7:20    0.0    37   39.5     7    154.0     9.4   609.0 
 241    7:30    0.0    38   38.2     7    158.5    11.8   609.1 
 241    7:40    0.0    38   38.2     6    164.1     9.4   609.1 
 241    7:50    0.0    38   38.5     6    158.2     9.4   609.2 
 241    8:00   23.0    39   38.0     4    156.2     7.1   609.3 
 241    8:10  423.0    39   37.3     4    166.1     7.1   609.4 
 241    8:20  419.0    40   37.2     4    166.6     7.1   609.5 
 241    8:30  428.0    41   36.9     4    169.7     7.1   609.5 
 241    8:40  469.0    42   35.6     5    149.3     9.4   609.6 
 241    8:50  495.0    44   34.5     6    138.5     9.4   609.7 
 241    9:00  471.0    45   33.2     4    126.1     9.4   609.7 
 241    9:10  494.0    44   33.1     5    161.7     7.1   609.8 
 241    9:20  431.0    45   32.8     4    154.1     7.1   609.9 
 241    9:30  450.0    44   33.0     4    185.2     7.1   609.9 
 241    9:40  149.0    44   33.8     5    246.4     9.4   610.0 
 241    9:50  232.0    44   34.5     5    208.3     7.1   610.0 
 241   10:00  378.0    44   33.8     6    225.3     9.4   610.1 
 241   10:10  448.0    45   33.3     5    217.1     9.4   610.1 
 241   10:20  463.0    46   33.0     5    233.6     9.4   610.1 
 241   10:30  485.0    47   31.4     5    245.6     9.4   610.1 
 241   10:40  482.0    48   30.7     6    252.5     9.4   610.1 
 241   10:50  519.0    47   31.7     6    196.2    14.1   610.2 
 241   11:00  531.0    49   30.2     5    277.3     9.4   610.2 
 241   11:10  474.0    48   30.0     7    256.0    11.8   610.2 
 241   11:20  361.0    49   30.6     8    266.5    14.1   610.2 
 241   11:30  388.0    49   29.9     9    259.0    14.1   610.2 
 241   11:40  438.0    50   29.5     9    279.2    14.1   610.2 
 241   11:50  463.0    52   28.6    11    280.1    16.5   610.2 
 241   12:00  469.0    51   29.5    10    273.5    16.5   610.3 
 241   12:10  480.0    52   28.1    10    270.8    16.5   610.3 
 241   12:20  501.0    51   28.6    10    265.8    16.5   610.4 
 241   12:30  461.0    52   28.5    10    272.6    16.5   610.4 
 241   12:40  493.0    53   27.9    11    266.8    16.5   610.5 
 241   12:50  483.0    54   26.9    10    263.5    16.5   610.5 
 241   13:00  506.0    53   27.5    12    260.9    21.2   610.5 
 241   13:10  484.0    54   26.7    12    267.8    21.2   610.5 
 241   13:20  492.0    52   28.1    12    260.1    16.5   610.5 
 241   13:30  478.0    53   26.5    11    264.1    16.5   610.4 
 241   13:40  469.0    54   25.6    10    262.4    14.1   610.4 
 241   13:50  474.0    54   24.8    14    264.7    23.5   610.4 
 241   14:00  466.0    56   24.2    13    272.8    18.8   610.4 
 241   14:10  483.0    55   23.6    12    271.7    21.2   610.3 
 241   14:20  476.0    56   22.0    15    274.1    25.9   610.3 
 241   14:30  493.0    56   20.2    14    264.3    23.5   610.3 
 241   14:40  467.0    55   21.7    16    265.1    23.5   610.3 
 241   14:50  452.0    55   22.4    17    264.8    25.9   610.2 
 241   15:00  450.0    55   23.4    15    263.0    28.2   610.2 
 241   15:10  480.0    54   23.8    14    260.2    23.5   610.2 
 241   15:20  492.0    54   23.9    18    262.4    25.9   610.2 
 241   15:30  481.0    55   23.6    19    268.7    25.9   610.2 
 241   15:40  530.0    55   23.2    14    265.1    23.5   610.2 
 241   15:50  517.0    55   23.4    16    265.7    23.5   610.2 
 241   16:00  490.0    55   23.3    15    262.5    23.5   610.2 
 241   16:10  512.0    55   23.6    18    267.3    23.5   610.2 
 241   16:20  496.0    54   24.6    18    266.0    25.9   610.2 
 241   16:30  506.0    54   24.4    20    262.2    28.2   610.2 
 241   16:40  543.0    54   24.5    19    263.1    23.5   610.2 
 241   16:50  570.0    54   24.2    15    264.1    25.9   610.2 
 241   17:00  570.0    54   24.3    19    265.8    25.9   610.2 
 241   17:10  571.0    53   24.7    17    262.3    23.5   610.2 
 241   17:20  567.0    52   25.2    19    264.7    25.9   610.2 
 241   17:30  568.0    52   26.5    18    266.4    25.9   610.1 
 241   17:40  574.0    52   26.9    19    266.8    25.9   610.1 
 241   17:50  540.0    50   27.8    15    264.2    21.2   610.2 
 241   18:00  482.0    50   28.3    21    265.1    30.6   610.1 
 241   18:10  511.0    50   29.1    22    264.1    30.6   610.2 
 241   18:20  692.0    49   30.4    24    265.9    30.6   610.2 
 241   18:30  684.0    48   31.9    22    265.8    30.6   610.2 
 241   18:40  710.0    47   33.4    20    266.2    25.9   610.3 
 241   18:50  685.0    47   35.4    13    266.9    18.8   610.4 
 241   19:00  767.0    46   35.8     8    264.6    11.8   610.4 
 241   19:10  765.0    46   36.3     7    267.6     9.4   610.5 
 241   19:20  763.0    46   35.8     6    258.3     9.4   610.5 
 241   19:30  1209.0    46   35.5     4    276.5     7.1   610.5 
 241   19:40  1428.0    46   35.5     4    291.1     7.1   610.6 

Return to White Mountain graphs page.


Western Regional Climate Center,wrcc@dri.edu